createdAt,value
2022-08-23T00:02:23.782Z,11.60
2022-08-23T00:05:07.678Z,13.33
2022-08-23T00:07:38.432Z,9.70
2022-08-23T00:10:07.600Z,6.90
2022-08-23T00:12:34.364Z,9.50
2022-08-23T00:15:01.129Z,8.60
2022-08-23T00:17:34.283Z,8.83
2022-08-23T00:20:08.305Z,12.27
2022-08-23T00:22:36.434Z,13.53
2022-08-23T00:25:05.765Z,9.17
2022-08-23T00:27:33.554Z,9.37
2022-08-23T00:30:00.578Z,8.70
2022-08-23T00:32:30.634Z,9.30
2022-08-23T00:34:58.469Z,12.07
2022-08-23T00:37:26.465Z,9.00
2022-08-23T00:39:53.617Z,9.67
2022-08-23T00:42:52.494Z,10.90
2022-08-23T00:45:45.653Z,7.83
2022-08-23T00:48:13.915Z,11.60
2022-08-23T00:50:56.542Z,10.43
2022-08-23T00:53:32.044Z,11.43
2022-08-23T00:56:03.465Z,10.33
2022-08-23T00:58:30.982Z,12.37
2022-08-23T01:01:00.809Z,11.27
2022-08-23T01:03:38.624Z,10.83
2022-08-23T01:06:21.213Z,8.53
2022-08-23T01:08:55.585Z,13.23
2022-08-23T01:12:02.943Z,16.77
2022-08-23T01:14:41.162Z,11.23
2022-08-23T01:17:22.617Z,11.37
2022-08-23T01:20:10.353Z,5.90
2022-08-23T01:23:02.090Z,9.00
2022-08-23T01:25:31.884Z,8.67
2022-08-23T01:27:59.689Z,8.13
2022-08-23T01:30:32.684Z,13.87
2022-08-23T01:33:03.041Z,9.77
2022-08-23T01:35:35.799Z,12.27
2022-08-23T01:38:02.619Z,12.37
2022-08-23T01:40:32.278Z,11.67
2022-08-23T01:42:59.659Z,7.73
2022-08-23T01:45:27.527Z,9.37
2022-08-23T01:47:54.640Z,10.50
2022-08-23T01:50:21.526Z,10.43
2022-08-23T01:52:48.267Z,7.67
2022-08-23T01:55:15.922Z,8.43
2022-08-23T01:57:45.492Z,8.77
2022-08-23T02:00:17.070Z,5.13
2022-08-23T02:02:45.377Z,5.87
2022-08-23T02:05:12.835Z,9.87
2022-08-23T02:07:44.065Z,14.17
2022-08-23T02:10:11.106Z,6.80
2022-08-23T02:12:38.486Z,10.03
2022-08-23T02:15:06.293Z,9.50
2022-08-23T02:17:33.377Z,13.83
2022-08-23T02:20:02.198Z,12.10
2022-08-23T02:22:29.000Z,12.60
2022-08-23T02:24:55.900Z,15.47
2022-08-23T02:27:23.094Z,13.93
2022-08-23T02:29:50.303Z,10.47
2022-08-23T02:32:19.770Z,14.50
2022-08-23T02:34:51.211Z,11.37
2022-08-23T02:37:32.235Z,9.97
2022-08-23T02:39:59.389Z,14.37
2022-08-23T02:42:26.461Z,11.10
2022-08-23T02:44:53.362Z,12.50
2022-08-23T02:47:20.587Z,12.07
2022-08-23T02:49:47.383Z,13.80
2022-08-23T02:52:14.162Z,13.63
2022-08-23T02:54:41.009Z,15.17
2022-08-23T02:57:07.863Z,11.87
2022-08-23T02:59:35.291Z,18.13
2022-08-23T03:02:02.172Z,16.10
2022-08-23T03:04:29.018Z,11.07
2022-08-23T03:06:55.750Z,11.33
2022-08-23T03:09:22.611Z,18.17
2022-08-23T03:11:49.964Z,10.20
2022-08-23T03:14:17.135Z,8.87
2022-08-23T03:16:45.132Z,13.77
2022-08-23T03:19:12.023Z,11.57
2022-08-23T03:21:39.122Z,13.43
2022-08-23T03:24:10.253Z,10.60
2022-08-23T03:26:37.674Z,14.87
2022-08-23T03:29:04.660Z,12.50
2022-08-23T03:31:31.459Z,14.53
2022-08-23T03:33:58.763Z,12.03
2022-08-23T03:36:27.992Z,12.87
2022-08-23T03:38:55.734Z,13.97
2022-08-23T03:41:22.970Z,12.77
2022-08-23T03:43:50.559Z,14.33
2022-08-23T03:46:23.787Z,11.73
2022-08-23T03:48:56.148Z,11.23
2022-08-23T03:51:24.547Z,14.00
2022-08-23T03:53:52.054Z,13.93
2022-08-23T03:56:28.990Z,13.43
2022-08-23T03:58:56.987Z,11.70
2022-08-23T04:01:28.594Z,13.10
2022-08-23T04:03:59.237Z,13.27
2022-08-23T04:06:27.641Z,12.90
2022-08-23T04:08:55.250Z,11.60
2022-08-23T04:11:23.637Z,12.73
2022-08-23T04:13:51.026Z,14.33
2022-08-23T04:16:19.018Z,11.60
2022-08-23T04:18:46.986Z,10.17
2022-08-23T04:21:18.359Z,16.37
2022-08-23T04:23:45.568Z,12.93
2022-08-23T04:26:12.689Z,13.03
2022-08-23T04:28:40.340Z,15.07
2022-08-23T04:31:07.528Z,12.50
2022-08-23T04:33:35.560Z,15.13
2022-08-23T04:36:07.775Z,13.70
2022-08-23T04:38:34.674Z,13.47
2022-08-23T04:41:20.075Z,12.87
2022-08-23T04:43:46.891Z,12.83
2022-08-23T04:46:17.304Z,12.67
2022-08-23T04:48:45.532Z,12.17
2022-08-23T04:51:16.004Z,11.53
2022-08-23T04:53:43.607Z,16.83
2022-08-23T04:56:10.473Z,12.90
2022-08-23T04:58:38.748Z,14.80
2022-08-23T05:01:08.867Z,14.03
2022-08-23T05:03:36.620Z,13.77
2022-08-23T05:06:05.210Z,13.60
2022-08-23T05:08:32.644Z,16.00
2022-08-23T05:11:04.127Z,20.10
2022-08-23T05:13:31.487Z,17.13
2022-08-23T05:16:01.622Z,11.53
2022-08-23T05:18:28.692Z,19.87
2022-08-23T05:20:55.441Z,14.67
2022-08-23T05:23:31.633Z,17.07
2022-08-23T05:26:00.061Z,17.60
2022-08-23T05:28:30.493Z,18.53
2022-08-23T05:31:11.542Z,17.77
2022-08-23T05:33:41.031Z,16.83
2022-08-23T05:36:10.717Z,19.07
2022-08-23T05:38:38.295Z,16.83
2022-08-23T05:41:06.982Z,19.80
2022-08-23T05:43:34.675Z,17.23
2022-08-23T05:46:08.112Z,20.57
2022-08-23T05:48:41.972Z,16.67
2022-08-23T05:51:24.927Z,18.63
2022-08-23T05:53:53.159Z,20.33
2022-08-23T05:56:23.443Z,20.27
2022-08-23T05:58:55.533Z,20.20
2022-08-23T06:01:27.481Z,22.37
2022-08-23T06:03:54.428Z,20.83
2022-08-23T06:06:21.418Z,21.40
2022-08-23T06:08:48.799Z,19.47
2022-08-23T06:11:27.425Z,22.13
2022-08-23T06:13:58.063Z,23.20
2022-08-23T06:16:33.905Z,18.73
2022-08-23T06:19:04.754Z,21.07
2022-08-23T06:21:32.909Z,17.23
2022-08-23T06:23:59.819Z,21.07
2022-08-23T06:26:31.957Z,20.23
2022-08-23T06:29:05.510Z,18.93
2022-08-23T06:31:48.888Z,19.67
2022-08-23T06:34:32.289Z,18.20
2022-08-23T06:37:04.830Z,20.10
2022-08-23T06:39:35.581Z,17.47
2022-08-23T06:42:36.435Z,18.07
2022-08-23T06:44:57.991Z,19.53
2022-08-23T06:47:24.711Z,16.60
2022-08-23T06:49:57.483Z,20.10
2022-08-23T06:52:27.469Z,16.77
2022-08-23T06:54:54.537Z,16.07
2022-08-23T06:57:21.488Z,19.53
2022-08-23T06:59:50.005Z,17.23
2022-08-23T07:02:16.909Z,16.50
2022-08-23T07:04:43.822Z,16.63
2022-08-23T07:07:12.072Z,19.00
2022-08-23T07:09:39.873Z,18.80
2022-08-23T07:12:07.060Z,16.23
2022-08-23T07:14:34.480Z,17.03
2022-08-23T07:17:03.524Z,20.37
2022-08-23T07:19:33.049Z,19.10
2022-08-23T07:22:00.996Z,22.60
2022-08-23T07:24:32.970Z,19.30
2022-08-23T07:27:01.954Z,18.93
2022-08-23T07:29:29.967Z,21.57
2022-08-23T07:31:57.958Z,15.97
2022-08-23T07:34:25.435Z,17.07
2022-08-23T07:36:53.484Z,18.53
2022-08-23T07:39:22.017Z,18.57
2022-08-23T07:41:49.406Z,14.63
2022-08-23T07:44:18.223Z,15.10
2022-08-23T07:46:47.121Z,15.23
2022-08-23T07:49:15.371Z,15.67
2022-08-23T07:51:45.542Z,17.38
2022-08-23T07:54:13.586Z,16.38
2022-08-23T07:56:40.747Z,21.83
2022-08-23T07:59:08.916Z,16.23
2022-08-23T08:01:35.855Z,13.57
2022-08-23T08:04:05.776Z,19.33
2022-08-23T08:06:46.310Z,16.15
2022-08-23T08:09:14.893Z,19.08
2022-08-23T08:11:44.464Z,13.60
2022-08-23T08:14:11.731Z,14.10
2022-08-23T08:16:47.994Z,15.10
2022-08-23T08:19:18.801Z,18.13
2022-08-23T08:21:48.546Z,12.73
2022-08-23T08:24:17.055Z,15.40
2022-08-23T08:26:45.347Z,14.85
2022-08-23T08:29:13.294Z,13.05
2022-08-23T08:31:42.352Z,14.45
2022-08-23T08:34:10.022Z,17.38
2022-08-23T08:36:42.805Z,16.52
2022-08-23T08:39:14.066Z,18.00
2022-08-23T08:42:06.875Z,15.63
2022-08-23T08:44:56.538Z,14.77
2022-08-23T08:47:52.775Z,16.15
2022-08-23T08:50:27.335Z,13.07
2022-08-23T08:53:38.909Z,14.48
2022-08-23T08:56:37.015Z,15.85
2022-08-23T08:59:08.230Z,13.70
2022-08-23T09:01:39.465Z,10.88
2022-08-23T09:04:07.350Z,16.05
2022-08-23T09:07:00.971Z,9.50
2022-08-23T09:09:30.768Z,13.27
2022-08-23T09:12:05.385Z,11.40
2022-08-23T09:14:56.302Z,10.82
2022-08-23T09:17:38.942Z,9.65
2022-08-23T09:20:07.307Z,7.15
2022-08-23T09:22:42.697Z,7.10
2022-08-23T09:25:15.030Z,9.93
2022-08-23T09:27:43.826Z,10.07
2022-08-23T09:30:15.179Z,11.82
2022-08-23T09:32:45.228Z,9.25
2022-08-23T09:35:19.157Z,10.23
2022-08-23T09:37:57.952Z,8.25
2022-08-23T09:40:41.338Z,11.48
2022-08-23T09:43:28.458Z,8.00
2022-08-23T09:46:00.257Z,6.38
2022-08-23T09:48:40.905Z,7.65
2022-08-23T09:51:36.270Z,9.68
2022-08-23T09:54:36.638Z,6.82
2022-08-23T09:57:09.703Z,10.90
2022-08-23T09:59:42.089Z,11.40
2022-08-23T10:02:21.189Z,7.63
2022-08-23T10:05:16.701Z,11.18
2022-08-23T10:08:00.839Z,5.95
2022-08-23T10:10:51.679Z,8.30
2022-08-23T10:13:20.828Z,7.65
2022-08-23T10:16:17.731Z,7.60
2022-08-23T10:19:15.453Z,6.57
2022-08-23T10:22:00.733Z,3.88
2022-08-23T10:25:02.498Z,6.47
2022-08-23T10:28:05.075Z,6.18
2022-08-23T10:30:53.511Z,5.47
2022-08-23T10:33:40.434Z,6.78
2022-08-23T10:36:17.314Z,5.90
2022-08-23T10:38:58.758Z,7.93
2022-08-23T10:41:53.101Z,5.18
2022-08-23T10:44:33.198Z,6.70
2022-08-23T10:47:08.378Z,6.95
2022-08-23T10:49:38.634Z,7.22
2022-08-23T10:52:09.662Z,9.50
2022-08-23T10:54:59.451Z,7.10
2022-08-23T10:57:47.809Z,9.27
2022-08-23T11:00:22.746Z,7.22
2022-08-23T11:03:07.710Z,9.20
2022-08-23T11:05:37.383Z,8.48
2022-08-23T11:08:06.881Z,7.82
2022-08-23T11:10:55.952Z,10.85
2022-08-23T11:13:27.328Z,7.97
2022-08-23T11:16:00.659Z,10.20
2022-08-23T11:18:48.685Z,5.40
2022-08-23T11:21:18.195Z,6.10
2022-08-23T11:23:49.460Z,5.38
2022-08-23T11:26:22.503Z,8.63
2022-08-23T11:29:16.300Z,6.05
2022-08-23T11:32:13.194Z,8.23
2022-08-23T11:35:01.183Z,8.82
2022-08-23T11:37:48.993Z,4.20
2022-08-23T11:40:39.707Z,7.47
2022-08-23T11:43:12.843Z,4.18
2022-08-23T11:45:46.430Z,4.32
2022-08-23T11:48:22.854Z,8.00
2022-08-23T11:51:07.365Z,4.30
2022-08-23T11:53:55.103Z,5.47
2022-08-23T11:57:01.400Z,4.15
2022-08-23T12:00:12.341Z,6.38
2022-08-23T12:02:39.162Z,6.95
2022-08-23T12:05:39.447Z,7.18
2022-08-23T12:08:06.532Z,7.60
2022-08-23T12:10:42.734Z,8.07
2022-08-23T12:13:18.730Z,5.88
2022-08-23T12:16:16.183Z,7.43
2022-08-23T12:18:53.418Z,4.13
2022-08-23T12:21:38.979Z,5.72
2022-08-23T12:24:33.468Z,4.10
2022-08-23T12:27:25.518Z,3.95
2022-08-23T12:29:55.257Z,5.82
2022-08-23T12:32:34.132Z,5.85
2022-08-23T12:35:09.521Z,5.40
2022-08-23T12:38:08.367Z,7.63
2022-08-23T12:40:42.094Z,11.35
2022-08-23T12:43:31.931Z,5.35
2022-08-23T12:46:02.724Z,6.63
2022-08-23T12:48:45.100Z,8.02
2022-08-23T12:51:12.881Z,4.93
2022-08-23T12:53:45.056Z,5.13
2022-08-23T12:56:32.606Z,3.80
2022-08-23T12:59:07.466Z,6.03
2022-08-23T13:01:37.644Z,5.80
2022-08-23T13:04:13.499Z,4.00
2022-08-23T13:06:49.599Z,5.00
2022-08-23T13:09:23.040Z,5.35
2022-08-23T13:11:50.760Z,4.88
2022-08-23T13:14:30.957Z,4.32
2022-08-23T13:17:12.863Z,6.38
2022-08-23T13:19:40.561Z,6.80
2022-08-23T13:22:34.795Z,4.15
2022-08-23T13:28:19.954Z,3.65
2022-08-23T13:31:02.545Z,4.18
2022-08-23T13:33:29.689Z,6.22
2022-08-23T13:36:21.295Z,6.68
2022-08-23T13:38:51.942Z,2.35
2022-08-23T13:41:38.439Z,4.25
2022-08-23T13:44:08.326Z,3.50
2022-08-23T13:46:43.017Z,3.45
2022-08-23T13:49:14.688Z,3.65
2022-08-23T13:52:17.218Z,5.10
2022-08-23T13:54:46.272Z,5.30
2022-08-23T13:57:19.668Z,4.65
2022-08-23T13:59:58.977Z,2.40
2022-08-23T14:02:26.130Z,2.80
2022-08-23T14:04:53.217Z,2.80
2022-08-23T14:07:21.454Z,3.45
2022-08-23T14:09:53.181Z,3.85
2022-08-23T14:12:25.029Z,5.72
2022-08-23T14:14:56.227Z,5.20
2022-08-23T14:17:23.135Z,4.88
2022-08-23T14:22:36.913Z,2.83
2022-08-23T14:25:04.967Z,3.30
2022-08-23T14:27:31.951Z,4.53
2022-08-23T14:29:59.129Z,3.15
2022-08-23T14:32:25.988Z,5.30
2022-08-23T14:34:54.274Z,2.92
2022-08-23T14:40:15.639Z,3.25
2022-08-23T14:42:43.522Z,3.17
2022-08-23T14:45:11.228Z,4.18
2022-08-23T14:47:38.953Z,2.65
2022-08-23T14:50:08.385Z,4.53
2022-08-23T14:52:41.873Z,2.97
2022-08-23T14:55:09.946Z,5.13
2022-08-23T14:57:37.286Z,5.13
2022-08-23T15:00:08.905Z,2.80
2022-08-23T15:02:37.879Z,2.58
2022-08-23T15:05:05.859Z,4.07
2022-08-23T15:07:32.955Z,4.70
2022-08-23T15:09:59.918Z,3.65
2022-08-23T15:15:21.782Z,3.75
2022-08-23T15:17:52.572Z,3.75
2022-08-23T15:20:21.154Z,4.35
2022-08-23T15:22:55.386Z,3.17
2022-08-23T15:25:25.054Z,2.45
2022-08-23T15:27:52.168Z,2.55
2022-08-23T15:30:19.498Z,4.05
2022-08-23T15:32:52.593Z,4.53
2022-08-23T15:35:24.960Z,5.88
2022-08-23T15:37:54.526Z,3.05
2022-08-23T15:40:21.866Z,3.30
2022-08-23T15:42:48.833Z,1.40
2022-08-23T15:45:15.917Z,2.13
2022-08-23T15:47:48.513Z,3.78
2022-08-23T15:50:18.405Z,1.75
2022-08-23T15:52:45.126Z,2.50
2022-08-23T15:55:12.523Z,1.27
2022-08-23T15:57:45.181Z,2.50
2022-08-23T16:00:14.857Z,3.03
2022-08-23T16:03:06.629Z,2.00
2022-08-23T16:05:28.923Z,3.45
2022-08-23T16:07:58.191Z,3.08
2022-08-23T16:10:28.178Z,1.88
2022-08-23T16:12:55.468Z,1.48
2022-08-23T16:15:22.748Z,2.47
2022-08-23T16:17:49.637Z,2.72
2022-08-23T16:20:19.855Z,1.98
2022-08-23T16:22:46.911Z,0.75
2022-08-23T16:25:13.759Z,1.75
2022-08-23T16:27:40.471Z,1.45
2022-08-23T16:30:07.992Z,1.95
2022-08-23T16:32:39.341Z,2.53
2022-08-23T16:35:07.240Z,1.58
2022-08-23T16:37:34.097Z,2.85
2022-08-23T16:40:01.004Z,2.38
2022-08-23T16:42:27.848Z,1.35
2022-08-23T16:44:54.567Z,1.52
2022-08-23T16:47:21.331Z,2.20
2022-08-23T16:49:48.282Z,1.67
2022-08-23T16:52:15.295Z,4.30
2022-08-23T16:54:42.672Z,1.65
2022-08-23T16:57:09.989Z,1.95
2022-08-23T16:59:40.421Z,1.58
2022-08-23T17:02:10.655Z,4.32
2022-08-23T17:04:37.889Z,3.97
2022-08-23T17:07:05.166Z,2.53
2022-08-23T17:09:31.991Z,2.08
2022-08-23T17:11:58.895Z,1.73
2022-08-23T17:14:26.192Z,1.98
2022-08-23T17:16:53.326Z,3.65
2022-08-23T17:19:22.201Z,3.67
2022-08-23T17:21:50.256Z,3.47
2022-08-23T17:24:17.700Z,2.95
2022-08-23T17:26:45.135Z,2.88
2022-08-23T17:29:12.299Z,2.97
2022-08-23T17:31:39.387Z,3.78
2022-08-23T17:34:06.841Z,2.67
2022-08-23T17:36:46.107Z,1.08
2022-08-23T17:39:17.987Z,4.07
2022-08-23T17:41:45.749Z,4.47
2022-08-23T17:44:13.177Z,3.45
2022-08-23T17:46:43.168Z,2.63
2022-08-23T17:49:11.083Z,2.80
2022-08-23T17:51:40.447Z,3.70
2022-08-23T17:54:08.994Z,3.10
2022-08-23T17:56:37.136Z,3.28
2022-08-23T17:59:05.587Z,3.58
2022-08-23T18:01:32.421Z,3.33
2022-08-23T18:04:00.338Z,3.38
2022-08-23T18:06:27.979Z,5.68
2022-08-23T18:08:55.729Z,5.78
2022-08-23T18:11:22.934Z,3.53
2022-08-23T18:13:53.550Z,4.82
2022-08-23T18:16:22.225Z,2.25
2022-08-23T18:18:49.687Z,4.38
2022-08-23T18:21:17.019Z,4.57
2022-08-23T18:23:43.861Z,5.03
2022-08-23T18:26:33.472Z,2.17
2022-08-23T18:29:01.233Z,4.28
2022-08-23T18:31:29.163Z,3.63
2022-08-23T18:34:00.173Z,5.50
2022-08-23T18:36:30.410Z,4.60
2022-08-23T18:38:57.639Z,6.50
2022-08-23T18:41:28.131Z,5.40
2022-08-23T18:43:55.622Z,4.40
2022-08-23T18:46:23.286Z,4.00
2022-08-23T18:48:53.223Z,4.85
2022-08-23T18:51:22.222Z,2.78
2022-08-23T18:53:49.503Z,5.03
2022-08-23T18:56:16.541Z,3.70
2022-08-23T18:58:44.032Z,8.18
2022-08-23T19:01:24.711Z,5.65
2022-08-23T19:03:53.169Z,4.97
2022-08-23T19:06:20.358Z,3.58
2022-08-23T19:08:47.996Z,4.95
2022-08-23T19:11:16.460Z,2.80
2022-08-23T19:13:43.736Z,8.82
2022-08-23T19:16:13.309Z,7.18
2022-08-23T19:18:41.486Z,7.05
2022-08-23T19:21:08.505Z,6.30
2022-08-23T19:23:35.582Z,4.10
2022-08-23T19:26:03.561Z,5.03
2022-08-23T19:28:32.708Z,5.57
2022-08-23T19:30:59.467Z,5.45
2022-08-23T19:33:26.299Z,7.85
2022-08-23T19:35:53.372Z,3.78
2022-08-23T19:38:28.826Z,4.50
2022-08-23T19:40:56.587Z,5.80
2022-08-23T19:43:24.328Z,8.98
2022-08-23T19:45:51.327Z,10.95
2022-08-23T19:48:19.630Z,5.82
2022-08-23T19:50:47.573Z,9.40
2022-08-23T19:53:14.922Z,6.57
2022-08-23T19:55:44.812Z,7.60
2022-08-23T19:58:13.445Z,8.32
2022-08-23T20:00:41.029Z,5.70
2022-08-23T20:03:07.948Z,5.95
2022-08-23T20:05:35.040Z,6.50
2022-08-23T20:08:02.086Z,9.45
2022-08-23T20:10:28.832Z,6.88
2022-08-23T20:12:55.597Z,6.60
2022-08-23T20:15:22.526Z,6.07
2022-08-23T20:17:49.654Z,6.72
2022-08-23T20:20:16.513Z,7.63
2022-08-23T20:23:02.400Z,7.30
2022-08-23T20:25:31.380Z,8.80
2022-08-23T20:27:58.530Z,5.70
2022-08-23T20:30:25.911Z,10.50
2022-08-23T20:32:52.643Z,6.65
2022-08-23T20:35:19.673Z,9.25
2022-08-23T20:37:46.506Z,9.90
2022-08-23T20:40:14.698Z,12.02
2022-08-23T20:42:41.615Z,6.40
2022-08-23T20:45:08.986Z,6.88
2022-08-23T20:47:36.549Z,10.00
2022-08-23T20:50:04.362Z,9.93
2022-08-23T20:52:34.489Z,10.55
2022-08-23T20:55:01.811Z,10.93
2022-08-23T20:57:37.943Z,9.32
2022-08-23T21:00:07.592Z,9.48
2022-08-23T21:02:34.575Z,8.20
2022-08-23T21:05:01.441Z,12.47
2022-08-23T21:07:31.741Z,12.90
2022-08-23T21:09:58.612Z,12.40
2022-08-23T21:12:25.639Z,13.67
2022-08-23T21:14:52.555Z,11.17
2022-08-23T21:17:19.463Z,12.43
2022-08-23T21:19:46.343Z,12.63
2022-08-23T21:22:13.246Z,9.10
2022-08-23T21:24:40.278Z,11.93
2022-08-23T21:27:09.964Z,7.63
2022-08-23T21:29:40.397Z,10.27
2022-08-23T21:32:07.394Z,7.00
2022-08-23T21:34:34.673Z,7.87
2022-08-23T21:37:01.563Z,11.93
2022-08-23T21:39:28.562Z,9.60
2022-08-23T21:41:56.328Z,9.93
2022-08-23T21:44:24.701Z,10.90
2022-08-23T21:46:52.240Z,12.40
2022-08-23T21:49:20.999Z,15.07
2022-08-23T21:51:49.143Z,11.13
2022-08-23T21:54:18.244Z,9.93
2022-08-23T21:56:45.956Z,12.17
2022-08-23T21:59:16.651Z,10.00
2022-08-23T22:01:44.591Z,8.67
2022-08-23T22:04:16.470Z,7.40
2022-08-23T22:06:45.585Z,11.13
2022-08-23T22:09:17.121Z,10.87
2022-08-23T22:11:46.619Z,13.27
2022-08-23T22:14:23.656Z,13.23
2022-08-23T22:16:55.128Z,10.33
2022-08-23T22:19:22.525Z,11.17
2022-08-23T22:21:51.321Z,9.97
2022-08-23T22:24:20.086Z,9.43
2022-08-23T22:26:50.482Z,11.97
2022-08-23T22:29:17.299Z,12.53
2022-08-23T22:31:44.154Z,14.37
2022-08-23T22:34:12.607Z,18.83
2022-08-23T22:36:39.789Z,17.43
2022-08-23T22:39:09.051Z,20.63
2022-08-23T22:41:36.228Z,17.93
2022-08-23T22:44:03.605Z,12.73
2022-08-23T22:46:33.552Z,23.23
2022-08-23T22:49:01.179Z,19.87
2022-08-23T22:51:31.551Z,23.30
2022-08-23T22:54:05.428Z,25.67
2022-08-23T22:56:38.636Z,20.67
2022-08-23T22:59:05.864Z,21.90
2022-08-23T23:01:36.137Z,20.60
2022-08-23T23:04:06.767Z,23.43
2022-08-23T23:06:35.400Z,22.20
2022-08-23T23:09:03.885Z,17.10
2022-08-23T23:11:30.737Z,16.07
2022-08-23T23:13:58.159Z,20.73
2022-08-23T23:16:26.718Z,20.10
2022-08-23T23:19:12.554Z,17.17
2022-08-23T23:21:45.856Z,17.73
2022-08-23T23:24:15.939Z,26.40
2022-08-23T23:26:47.476Z,12.40
2022-08-23T23:29:14.946Z,16.53
2022-08-23T23:31:41.812Z,15.20
2022-08-23T23:34:09.167Z,15.87
2022-08-23T23:36:36.111Z,17.33
2022-08-23T23:39:04.566Z,19.90
2022-08-23T23:41:31.721Z,14.37
2022-08-23T23:43:59.623Z,15.63
2022-08-23T23:46:26.502Z,13.07
2022-08-23T23:48:54.090Z,15.23
2022-08-23T23:51:25.337Z,17.33
2022-08-23T23:53:53.209Z,17.70
2022-08-23T23:56:22.143Z,13.97
2022-08-23T23:58:52.124Z,19.03
